Language: 


Des rapports , des résumés tant et plus, au choix de chacun....


Données statistiques de la station
Quotidien Rapport Février 24, 2017 Unités:  Métrique    Anglais   les deux
« Précédent Jour
Suivant Jour »
Quotidien Hebdomadaire Mensuel Annuel Actuel
  Haut: Bas: Moyen:
Température: 8.6 °C -0.1 °C 4.9 °C
Pt de rosée: 5.9 °C -1.4 °C 2.2 °C
Humidité: 96 % 69 % 83 %
Vitesse du vent: 18.3 km/h 0.0 km/h 5.4 km/h
Rafales: 24.8 km/h - -
Vent:- - West
Pression: 1021.9 hPa 1003.9 hPa -
Précipitation: 4.6 mm    
Historical Graphs
 
 
Données statistiques pour Février 24, 2017
Heure Température Point de rosée Pression Vent Vitesse du vent Refales Humidité Pluie (taux horaire)
00:03 7.2 °C 1.8 °C 1003.9 hPa North 4.7 km/h 15.1 km/h 69 % 0.0 mm
00:08 7.2 °C 2.1 °C 1005.0 hPa NW 13.0 km/h 13.7 km/h 70 % 0.0 mm
00:13 7.2 °C 2.1 °C 1005.0 hPa West 10.1 km/h 13.7 km/h 70 % 0.0 mm
00:18 7.2 °C 2.1 °C 1005.0 hPa West 10.1 km/h 16.3 km/h 70 % 0.0 mm
00:23 7.2 °C 2.2 °C 1005.0 hPa WNW 13.7 km/h 16.3 km/h 71 % 0.0 mm
00:28 7.2 °C 2.1 °C 1005.0 hPa WNW 5.8 km/h 16.9 km/h 70 % 0.0 mm
00:33 7.1 °C 2.2 °C 1005.0 hPa West 5.5 km/h 20.6 km/h 71 % 0.0 mm
00:38 6.9 °C 2.1 °C 1005.0 hPa North 12.2 km/h 20.6 km/h 71 % 0.0 mm
00:42 6.8 °C 1.9 °C 1005.0 hPa WNW 10.5 km/h 16.3 km/h 71 % 0.0 mm
00:48 6.8 °C 1.9 °C 1005.0 hPa West 12.2 km/h 16.9 km/h 71 % 0.0 mm
00:53 6.8 °C 2.1 °C 1006.0 hPa West 12.6 km/h 16.9 km/h 72 % 0.0 mm
00:58 6.8 °C 2.3 °C 1006.0 hPa North 6.1 km/h 16.9 km/h 73 % 0.0 mm
01:03 6.8 °C 2.3 °C 1006.0 hPa South 17.2 km/h 19.8 km/h 73 % 0.0 mm
01:08 6.8 °C 2.3 °C 1006.0 hPa WSW 10.1 km/h 19.8 km/h 73 % 0.0 mm
01:13 6.8 °C 2.3 °C 1006.0 hPa WNW 13.7 km/h 21.2 km/h 73 % 0.0 mm
01:18 6.8 °C 2.3 °C 1006.0 hPa WNW 12.6 km/h 21.2 km/h 73 % 0.0 mm
01:23 6.7 °C 2.2 °C 1006.0 hPa West 5.0 km/h 20.9 km/h 73 % 0.0 mm
01:28 6.7 °C 2.2 °C 1006.0 hPa West 9.7 km/h 17.7 km/h 73 % 0.0 mm
01:33 6.7 °C 2.3 °C 1006.0 hPa NNW 12.6 km/h 16.9 km/h 74 % 0.0 mm
01:38 6.7 °C 2.3 °C 1007.0 hPa West 14.3 km/h 20.1 km/h 74 % 0.0 mm
01:43 6.7 °C 2.3 °C 1007.0 hPa West 8.7 km/h 20.1 km/h 74 % 0.0 mm
01:48 6.7 °C 2.3 °C 1007.0 hPa West 6.4 km/h 14.3 km/h 74 % 0.0 mm
01:53 6.6 °C 2.3 °C 1007.0 hPa WNW 4.7 km/h 13.7 km/h 74 % 0.0 mm
01:58 6.6 °C 2.3 °C 1007.0 hPa West 4.7 km/h 13.7 km/h 74 % 0.0 mm
02:03 6.4 °C 2.2 °C 1007.0 hPa West 10.1 km/h 13.7 km/h 74 % 0.0 mm
02:08 6.4 °C 2.3 °C 1007.0 hPa WNW 10.5 km/h 15.4 km/h 75 % 0.0 mm
02:13 6.4 °C 2.3 °C 1007.0 hPa NW 8.7 km/h 19.5 km/h 75 % 0.0 mm
02:18 6.4 °C 2.3 °C 1007.0 hPa West 12.6 km/h 19.5 km/h 75 % 0.0 mm
02:23 6.4 °C 2.3 °C 1007.0 hPa West 16.3 km/h 16.6 km/h 75 % 0.0 mm
02:28 6.4 °C 2.3 °C 1007.0 hPa West 14.0 km/h 17.7 km/h 75 % 0.0 mm
02:33 6.3 °C 2.2 °C 1007.0 hPa WSW 9.7 km/h 19.8 km/h 75 % 0.0 mm
02:38 6.2 °C 2.3 °C 1007.0 hPa WSW 13.7 km/h 20.9 km/h 76 % 0.0 mm
02:43 6.1 °C 2.2 °C 1007.0 hPa West 14.0 km/h 20.9 km/h 76 % 0.0 mm
02:48 6.0 °C 2.1 °C 1007.0 hPa West 13.7 km/h 23.8 km/h 76 % 0.0 mm
02:53 5.9 °C 1.9 °C 1007.0 hPa West 10.8 km/h 23.8 km/h 76 % 0.0 mm
02:58 5.8 °C 1.9 °C 1007.0 hPa West 9.3 km/h 20.1 km/h 76 % 0.0 mm
03:03 5.7 °C 1.9 °C 1007.0 hPa WNW 6.9 km/h 15.4 km/h 77 % 0.0 mm
03:08 5.7 °C 1.9 °C 1008.0 hPa WNW 9.0 km/h 14.8 km/h 77 % 0.0 mm
03:13 5.7 °C 1.9 °C 1008.0 hPa NNW 5.8 km/h 16.6 km/h 77 % 0.0 mm
03:18 5.7 °C 1.9 °C 1008.0 hPa WNW 5.8 km/h 16.6 km/h 77 % 0.0 mm
03:23 5.7 °C 1.9 °C 1008.0 hPa West 10.5 km/h 15.8 km/h 77 % 0.0 mm
03:28 5.7 °C 2.2 °C 1008.0 hPa West 5.8 km/h 13.7 km/h 78 % 0.0 mm
03:33 5.6 °C 2.1 °C 1008.0 hPa NW 7.6 km/h 13.0 km/h 78 % 0.0 mm
03:38 5.6 °C 2.1 °C 1009.0 hPa NW 9.7 km/h 11.9 km/h 78 % 0.0 mm
03:43 5.6 °C 2.2 °C 1009.0 hPa West 5.5 km/h 13.0 km/h 79 % 0.0 mm
03:48 5.5 °C 2.1 °C 1009.0 hPa North 10.1 km/h 13.7 km/h 79 % 0.0 mm
03:53 5.5 °C 2.1 °C 1009.0 hPa WNW 9.3 km/h 13.7 km/h 79 % 0.0 mm
03:58 5.5 °C 2.3 °C 1009.0 hPa WNW 7.9 km/h 15.8 km/h 80 % 0.0 mm
04:03 5.4 °C 2.2 °C 1009.0 hPa WSW 9.7 km/h 15.8 km/h 80 % 0.0 mm
04:08 5.3 °C 2.1 °C 1009.0 hPa West 6.4 km/h 11.9 km/h 80 % 0.0 mm
04:13 5.1 °C 1.9 °C 1009.0 hPa NNW 7.6 km/h 11.6 km/h 80 % 0.0 mm
04:18 5.0 °C 1.8 °C 1009.0 hPa West 6.9 km/h 13.0 km/h 80 % 0.0 mm
04:23 4.9 °C 1.9 °C 1009.0 hPa West 4.7 km/h 13.0 km/h 81 % 0.0 mm
04:28 4.9 °C 2.1 °C 1009.0 hPa NW 8.7 km/h 11.9 km/h 82 % 0.0 mm
04:33 5.0 °C 2.2 °C 1009.0 hPa West 6.9 km/h 15.4 km/h 82 % 0.0 mm
04:38 4.9 °C 2.1 °C 1009.0 hPa WNW 9.0 km/h 15.4 km/h 82 % 0.0 mm
04:43 4.9 °C 2.1 °C 1009.0 hPa West 6.4 km/h 15.1 km/h 82 % 0.0 mm
04:48 5.0 °C 2.3 °C 1009.0 hPa West 8.7 km/h 15.1 km/h 83 % 0.0 mm
04:53 5.0 °C 2.3 °C 1009.0 hPa West 5.0 km/h 11.6 km/h 83 % 0.0 mm
04:58 5.0 °C 2.3 °C 1009.0 hPa WSW 9.0 km/h 11.6 km/h 83 % 0.0 mm
05:03 5.0 °C 2.3 °C 1009.0 hPa WSW 6.4 km/h 13.0 km/h 83 % 0.0 mm
05:08 5.1 °C 2.6 °C 1009.0 hPa SW 7.9 km/h 13.0 km/h 84 % 0.0 mm
05:13 5.1 °C 2.6 °C 1009.0 hPa WSW 9.7 km/h 11.9 km/h 84 % 0.0 mm
05:18 5.0 °C 2.5 °C 1009.0 hPa West 7.9 km/h 13.0 km/h 84 % 0.0 mm
05:23 5.0 °C 2.7 °C 1009.0 hPa WSW 12.2 km/h 15.8 km/h 85 % 0.0 mm
05:28 5.0 °C 2.7 °C 1009.0 hPa West 11.9 km/h 15.8 km/h 85 % 0.0 mm
05:33 5.0 °C 2.7 °C 1009.0 hPa WNW 12.2 km/h 15.4 km/h 85 % 0.0 mm
05:38 4.9 °C 2.8 °C 1010.0 hPa WSW 15.8 km/h 15.8 km/h 86 % 0.0 mm
05:43 4.9 °C 2.8 °C 1010.0 hPa WSW 15.8 km/h 15.8 km/h 86 % 0.0 mm
05:48 4.7 °C 2.6 °C 1010.0 hPa West 9.0 km/h 15.8 km/h 86 % 0.0 mm
05:53 4.7 °C 2.6 °C 1010.0 hPa West 9.7 km/h 15.8 km/h 86 % 0.0 mm
05:58 4.6 °C 2.4 °C 1010.0 hPa WNW 4.7 km/h 12.6 km/h 86 % 0.0 mm
06:03 4.5 °C 2.4 °C 1010.0 hPa West 5.5 km/h 11.6 km/h 86 % 0.0 mm
06:08 4.5 °C 2.4 °C 1010.0 hPa WNW 6.9 km/h 10.1 km/h 86 % 0.0 mm
06:13 4.6 °C 2.6 °C 1010.0 hPa West 5.8 km/h 11.6 km/h 87 % 0.0 mm
06:18 4.7 °C 2.7 °C 1010.0 hPa West 6.9 km/h 11.6 km/h 87 % 0.0 mm
06:23 4.8 °C 2.8 °C 1011.1 hPa West 7.9 km/h 13.0 km/h 87 % 0.0 mm
06:28 4.8 °C 3.0 °C 1011.1 hPa WSW 10.1 km/h 13.0 km/h 88 % 0.0 mm
06:33 4.9 °C 2.9 °C 1011.1 hPa WSW 13.0 km/h 13.0 km/h 87 % 0.0 mm
06:38 4.9 °C 2.9 °C 1011.1 hPa West 5.8 km/h 13.0 km/h 87 % 0.0 mm
06:43 5.0 °C 3.0 °C 1011.1 hPa West 4.3 km/h 12.6 km/h 87 % 0.0 mm
06:48 4.9 °C 2.9 °C 1011.1 hPa West 5.5 km/h 12.6 km/h 87 % 0.0 mm
06:53 4.8 °C 2.8 °C 1011.1 hPa West 5.0 km/h 13.7 km/h 87 % 0.0 mm
06:58 4.7 °C 2.7 °C 1011.1 hPa WNW 5.8 km/h 13.7 km/h 87 % 0.0 mm
07:03 4.7 °C 2.7 °C 1011.1 hPa West 5.8 km/h 11.9 km/h 87 % 0.0 mm
07:08 4.6 °C 2.6 °C 1011.1 hPa Calm   11.6 km/h 87 % 0.0 mm
07:13 4.7 °C 2.7 °C 1011.1 hPa WNW 4.7 km/h 11.6 km/h 87 % 0.0 mm
07:18 4.7 °C 2.7 °C 1011.1 hPa West 6.4 km/h 9.0 km/h 87 % 0.0 mm
07:23 4.7 °C 2.9 °C 1011.1 hPa West 9.0 km/h 10.1 km/h 88 % 0.0 mm
07:26 4.7 °C 2.9 °C 1011.1 hPa WNW 6.9 km/h 10.1 km/h 88 % 0.0 mm
07:31 4.7 °C 2.9 °C 1011.1 hPa West 6.9 km/h 10.5 km/h 88 % 0.0 mm
07:36 4.8 °C 3.0 °C 1011.1 hPa WNW 6.4 km/h 10.8 km/h 88 % 0.0 mm
07:41 4.8 °C 3.0 °C 1011.1 hPa West 4.0 km/h 10.8 km/h 88 % 0.0 mm
07:46 4.9 °C 3.1 °C 1011.1 hPa WNW 5.5 km/h 9.7 km/h 88 % 0.0 mm
07:51 4.9 °C 3.1 °C 1011.1 hPa West 4.7 km/h 10.5 km/h 88 % 0.0 mm
07:56 5.0 °C 3.2 °C 1011.1 hPa WNW 9.0 km/h 10.5 km/h 88 % 0.0 mm
08:01 5.0 °C 3.2 °C 1011.1 hPa West 5.8 km/h 10.5 km/h 88 % 0.0 mm
08:06 5.1 °C 3.3 °C 1011.1 hPa NW 6.4 km/h 10.5 km/h 88 % 0.0 mm
08:11 5.1 °C 3.3 °C 1012.1 hPa WNW 5.8 km/h 11.6 km/h 88 % 0.0 mm
08:16 5.2 °C 3.4 °C 1012.1 hPa NNE 3.5 km/h 11.6 km/h 88 % 0.0 mm
08:21 5.2 °C 3.4 °C 1012.1 hPa WNW 6.9 km/h 11.6 km/h 88 % 0.0 mm
08:26 5.2 °C 3.4 °C 1013.1 hPa NNW 9.0 km/h 9.7 km/h 88 % 0.0 mm
08:31 5.2 °C 3.4 °C 1013.1 hPa West 5.8 km/h 10.1 km/h 88 % 0.0 mm
08:36 5.3 °C 3.4 °C 1013.1 hPa North 4.7 km/h 11.6 km/h 88 % 0.0 mm
08:41 5.2 °C 3.2 °C 1013.1 hPa WNW 5.0 km/h 13.7 km/h 87 % 0.0 mm
08:46 5.2 °C 3.2 °C 1013.1 hPa WNW 10.5 km/h 13.7 km/h 87 % 0.0 mm
08:51 5.2 °C 3.2 °C 1013.1 hPa WNW 8.7 km/h 12.2 km/h 87 % 0.0 mm
08:56 5.3 °C 3.3 °C 1013.1 hPa WNW 10.1 km/h 12.2 km/h 87 % 0.0 mm
09:01 5.3 °C 3.3 °C 1013.1 hPa WNW 10.1 km/h 10.1 km/h 87 % 0.0 mm
09:06 5.4 °C 3.4 °C 1013.1 hPa WSW 4.3 km/h 10.1 km/h 87 % 0.0 mm
09:11 5.5 °C 3.5 °C 1012.1 hPa West 6.9 km/h 10.5 km/h 87 % 0.0 mm
09:16 5.6 °C 3.8 °C 1012.1 hPa WNW 7.9 km/h 10.5 km/h 88 % 0.0 mm
09:21 5.7 °C 3.8 °C 1012.1 hPa WSW 8.7 km/h 14.0 km/h 88 % 0.0 mm
09:26 5.7 °C 3.8 °C 1012.1 hPa West 5.0 km/h 14.0 km/h 88 % 0.0 mm
09:31 5.6 °C 3.8 °C 1012.1 hPa West 9.3 km/h 14.0 km/h 88 % 0.0 mm
09:36 5.3 °C 3.3 °C 1012.1 hPa West 18.3 km/h 18.3 km/h 87 % 0.0 mm
09:41 5.1 °C 3.3 °C 1013.1 hPa Calm   18.3 km/h 88 % 0.0 mm
09:46 4.9 °C 3.1 °C 1013.1 hPa NE 6.4 km/h 18.3 km/h 88 % 0.0 mm
09:51 4.5 °C 2.7 °C 1013.1 hPa NNW 4.7 km/h 10.5 km/h 88 % 0.0 mm
09:56 4.5 °C 2.7 °C 1014.1 hPa North 6.1 km/h 9.0 km/h 88 % 0.3 mm
10:01 4.3 °C 2.5 °C 1014.1 hPa North 5.8 km/h 7.9 km/h 88 % 0.3 mm
10:06 4.2 °C 2.6 °C 1014.1 hPa NE 5.5 km/h 7.6 km/h 89 % 0.3 mm
10:11 4.2 °C 2.6 °C 1014.1 hPa NNE 5.0 km/h 6.4 km/h 89 % 0.3 mm
10:16 4.2 °C 2.7 °C 1014.1 hPa NNE 5.0 km/h 6.9 km/h 90 % 0.5 mm
10:21 4.3 °C 2.9 °C 1014.1 hPa North 4.3 km/h 6.9 km/h 91 % 0.5 mm
10:26 4.5 °C 3.3 °C 1014.1 hPa Calm   5.5 km/h 92 % 0.5 mm
10:31 4.5 °C 3.5 °C 1014.1 hPa Calm   4.3 km/h 93 % 0.5 mm
10:36 4.6 °C 3.6 °C 1014.1 hPa Calm   4.3 km/h 93 % 0.5 mm
10:41 4.7 °C 3.7 °C 1014.1 hPa Calm   1.8 km/h 93 % 0.5 mm
10:46 4.7 °C 3.7 °C 1014.1 hPa NE 5.0 km/h 5.8 km/h 93 % 0.5 mm
10:51 4.7 °C 3.7 °C 1014.1 hPa NE 6.9 km/h 6.9 km/h 93 % 0.5 mm
10:56 4.8 °C 3.8 °C 1014.1 hPa Calm   6.9 km/h 93 % 0.3 mm
11:01 4.7 °C 3.7 °C 1014.1 hPa East 4.3 km/h 6.9 km/h 93 % 0.3 mm
11:06 4.7 °C 3.7 °C 1014.1 hPa ENE 2.6 km/h 7.6 km/h 93 % 0.3 mm
11:11 4.8 °C 3.8 °C 1015.1 hPa East 3.2 km/h 7.6 km/h 93 % 0.3 mm
11:16 4.7 °C 3.8 °C 1015.1 hPa West 4.7 km/h 10.1 km/h 94 % 0.3 mm
11:21 4.7 °C 3.7 °C 1015.1 hPa NW 8.7 km/h 10.5 km/h 93 % 0.3 mm
11:26 4.5 °C 3.5 °C 1015.1 hPa North 12.2 km/h 15.8 km/h 93 % 0.5 mm
11:31 4.4 °C 3.6 °C 1015.1 hPa WNW 15.4 km/h 16.9 km/h 94 % 0.8 mm
11:36 4.3 °C 3.4 °C 1015.1 hPa NNW 7.9 km/h 16.9 km/h 94 % 1.5 mm
11:41 4.2 °C 3.3 °C 1015.1 hPa NNE 4.0 km/h 16.9 km/h 94 % 2.0 mm
11:46 4.2 °C 3.3 °C 1015.1 hPa NNW 9.0 km/h 16.9 km/h 94 % 2.3 mm
11:51 4.1 °C 3.2 °C 1015.1 hPa North 10.1 km/h 14.0 km/h 94 % 2.8 mm
11:56 4.2 °C 3.3 °C 1015.1 hPa NNW 5.8 km/h 16.3 km/h 94 % 2.8 mm
12:01 4.3 °C 3.6 °C 1015.1 hPa NW 5.5 km/h 16.3 km/h 95 % 3.0 mm
12:06 4.6 °C 4.0 °C 1015.1 hPa Calm   11.1 km/h 96 % 3.6 mm
12:11 4.8 °C 4.2 °C 1015.1 hPa NNW 2.1 km/h 9.3 km/h 96 % 3.6 mm
12:16 5.3 °C 4.7 °C 1015.1 hPa North 4.0 km/h 6.4 km/h 96 % 3.0 mm
12:21 5.4 °C 4.8 °C 1015.1 hPa NNW 10.5 km/h 12.2 km/h 96 % 3.0 mm
12:26 5.4 °C 4.8 °C 1014.1 hPa North 9.7 km/h 15.4 km/h 96 % 3.3 mm
12:31 5.5 °C 4.9 °C 1014.1 hPa NW 6.9 km/h 15.4 km/h 96 % 3.0 mm
12:36 5.6 °C 4.8 °C 1014.1 hPa Calm   10.1 km/h 95 % 2.3 mm
12:41 5.9 °C 5.2 °C 1015.1 hPa West 1.8 km/h 6.9 km/h 95 % 1.8 mm
12:46 6.2 °C 5.6 °C 1015.1 hPa West 4.7 km/h 8.7 km/h 96 % 1.5 mm
12:51 6.4 °C 5.8 °C 1015.1 hPa NW 5.5 km/h 11.6 km/h 96 % 1.3 mm
12:56 6.4 °C 5.7 °C 1015.1 hPa NW 2.1 km/h 11.6 km/h 95 % 1.3 mm
13:01 6.4 °C 5.7 °C 1015.1 hPa West 4.0 km/h 9.0 km/h 95 % 1.0 mm
13:06 6.4 °C 5.7 °C 1015.1 hPa North 9.7 km/h 10.1 km/h 95 % 0.8 mm
13:11 6.4 °C 5.6 °C 1015.1 hPa NW 4.3 km/h 15.8 km/h 94 % 0.8 mm
13:16 6.4 °C 5.6 °C 1015.1 hPa NNW 4.7 km/h 15.8 km/h 94 % 0.8 mm
13:21 6.4 °C 5.3 °C 1015.1 hPa NNW 6.9 km/h 13.0 km/h 93 % 0.8 mm
13:26 6.4 °C 5.3 °C 1015.1 hPa North 9.0 km/h 13.0 km/h 93 % 0.3 mm
13:31 6.4 °C 5.4 °C 1015.1 hPa West 1.8 km/h 12.6 km/h 93 % 0.3 mm
13:36 6.7 °C 5.6 °C 1015.1 hPa North 6.1 km/h 12.6 km/h 93 % 0.3 mm
13:41 6.7 °C 5.6 °C 1015.1 hPa NNE 5.8 km/h 12.6 km/h 93 % 0.3 mm
13:46 6.8 °C 5.7 °C 1015.1 hPa NW 5.0 km/h 10.1 km/h 92 % 0.3 mm
13:51 7.1 °C 5.8 °C 1015.1 hPa East 5.0 km/h 10.1 km/h 92 % 0.0 mm
13:56 7.2 °C 5.8 °C 1015.1 hPa NNW 6.9 km/h 13.0 km/h 91 % 0.0 mm
14:01 7.4 °C 5.9 °C 1015.1 hPa WNW 4.0 km/h 13.0 km/h 90 % 0.0 mm
14:06 7.3 °C 5.7 °C 1015.1 hPa NNE 5.8 km/h 12.6 km/h 89 % 0.0 mm
14:11 7.2 °C 5.3 °C 1016.1 hPa WNW 9.3 km/h 11.6 km/h 88 % 0.0 mm
14:16 6.9 °C 4.6 °C 1016.1 hPa WNW 6.4 km/h 17.7 km/h 85 % 0.0 mm
14:21 7.4 °C 5.3 °C 1016.1 hPa West 11.6 km/h 17.7 km/h 86 % 0.0 mm
14:26 7.4 °C 5.1 °C 1015.1 hPa NNW 6.1 km/h 16.9 km/h 85 % 0.0 mm
14:31 7.3 °C 4.6 °C 1015.1 hPa North 11.9 km/h 20.1 km/h 83 % 0.0 mm
14:36 7.2 °C 4.1 °C 1015.1 hPa NW 8.7 km/h 20.1 km/h 81 % 0.0 mm
14:41 7.2 °C 4.1 °C 1016.1 hPa North 10.5 km/h 19.8 km/h 81 % 0.0 mm
14:46 7.8 °C 4.6 °C 1016.1 hPa North 6.4 km/h 24.8 km/h 80 % 0.0 mm
14:51 8.2 °C 4.6 °C 1016.1 hPa North 5.5 km/h 24.8 km/h 78 % 0.0 mm
14:56 8.6 °C 5.4 °C 1016.8 hPa North 5.0 km/h 19.5 km/h 80 % 0.0 mm
15:01 8.1 °C 4.2 °C 1016.8 hPa North 12.2 km/h 12.6 km/h 76 % 0.0 mm
15:06 7.8 °C 3.9 °C 1016.8 hPa NNW 6.4 km/h 12.6 km/h 76 % 0.0 mm
15:11 7.7 °C 3.5 °C 1016.8 hPa NNW 12.2 km/h 16.9 km/h 75 % 0.0 mm
15:16 7.4 °C 3.3 °C 1016.8 hPa NNW 6.4 km/h 16.9 km/h 75 % 0.0 mm
15:21 7.4 °C 3.3 °C 1016.8 hPa NW 9.0 km/h 13.7 km/h 75 % 0.0 mm
15:26 7.7 °C 3.5 °C 1016.8 hPa WNW 4.3 km/h 13.7 km/h 75 % 0.0 mm
15:31 8.4 °C 4.2 °C 1016.8 hPa East 1.4 km/h 13.7 km/h 75 % 0.0 mm
15:36 8.3 °C 3.8 °C 1016.8 hPa NNW 6.4 km/h 13.7 km/h 73 % 0.0 mm
15:41 7.9 °C 3.2 °C 1016.8 hPa West 6.9 km/h 14.0 km/h 72 % 0.0 mm
15:46 7.7 °C 3.1 °C 1016.8 hPa WNW 6.4 km/h 14.0 km/h 73 % 0.0 mm
15:51 7.6 °C 3.0 °C 1016.8 hPa Calm   11.6 km/h 73 % 0.0 mm
15:56 7.3 °C 2.8 °C 1016.1 hPa North 5.8 km/h 16.3 km/h 73 % 0.0 mm
16:01 7.7 °C 3.2 °C 1016.1 hPa North 6.1 km/h 16.3 km/h 73 % 0.0 mm
16:06 7.9 °C 3.2 °C 1016.1 hPa NNW 6.1 km/h 15.4 km/h 72 % 0.0 mm
16:07 7.9 °C 3.2 °C 1016.8 hPa WNW 4.7 km/h 15.4 km/h 72 % 0.0 mm
16:12 8.3 °C 3.4 °C 1016.8 hPa NNW 5.0 km/h 15.4 km/h 71 % 0.0 mm
16:17 7.9 °C 2.6 °C 1016.8 hPa North 9.0 km/h 13.7 km/h 69 % 0.0 mm
16:22 7.6 °C 2.2 °C 1016.8 hPa NW 9.3 km/h 13.7 km/h 69 % 0.0 mm
16:27 7.4 °C 2.3 °C 1016.8 hPa Calm   12.2 km/h 70 % 0.0 mm
16:32 7.3 °C 2.2 °C 1016.8 hPa North 7.2 km/h 11.9 km/h 70 % 0.0 mm
16:37 7.2 °C 2.1 °C 1016.8 hPa WNW 4.3 km/h 11.9 km/h 70 % 0.0 mm
16:42 6.9 °C 2.1 °C 1016.8 hPa NNW 3.2 km/h 10.1 km/h 71 % 0.0 mm
16:47 6.9 °C 2.3 °C 1016.8 hPa NNW 9.7 km/h 10.1 km/h 72 % 0.0 mm
16:52 6.8 °C 2.2 °C 1016.8 hPa Calm   9.7 km/h 72 % 0.0 mm
16:57 6.8 °C 2.3 °C 1016.8 hPa NNW 6.9 km/h 8.7 km/h 73 % 0.0 mm
17:02 6.8 °C 2.1 °C 1016.8 hPa Calm   10.1 km/h 72 % 0.0 mm
17:07 6.8 °C 2.1 °C 1018.2 hPa West 4.3 km/h 10.1 km/h 72 % 0.0 mm
17:12 6.7 °C 1.9 °C 1018.2 hPa WSW 5.5 km/h 9.3 km/h 72 % 0.0 mm
17:17 6.8 °C 1.9 °C 1018.2 hPa NNW 1.4 km/h 9.7 km/h 71 % 0.0 mm
17:22 6.8 °C 1.9 °C 1018.2 hPa NNW 6.4 km/h 11.1 km/h 71 % 0.0 mm
17:27 6.8 °C 1.9 °C 1018.2 hPa West 4.0 km/h 11.1 km/h 71 % 0.0 mm
17:32 6.8 °C 1.8 °C 1018.2 hPa North 5.0 km/h 8.7 km/h 70 % 0.0 mm
17:37 6.8 °C 1.9 °C 1018.2 hPa WNW 3.5 km/h 6.1 km/h 71 % 0.0 mm
17:42 6.8 °C 1.9 °C 1018.2 hPa WNW 2.6 km/h 6.1 km/h 71 % 0.0 mm
17:47 6.8 °C 1.7 °C 1018.2 hPa NNW 4.7 km/h 9.7 km/h 70 % 0.0 mm
17:52 6.8 °C 1.8 °C 1018.2 hPa Calm   12.2 km/h 70 % 0.0 mm
17:57 6.7 °C 1.6 °C 1018.2 hPa NNW 5.0 km/h 12.2 km/h 70 % 0.0 mm
18:02 6.4 °C 1.3 °C 1018.2 hPa WNW 6.1 km/h 10.5 km/h 70 % 0.0 mm
18:07 6.2 °C 1.1 °C 1018.8 hPa Calm   10.5 km/h 70 % 0.0 mm
18:12 6.0 °C 0.9 °C 1018.8 hPa WNW 5.8 km/h 6.4 km/h 70 % 0.0 mm
18:17 5.8 °C 0.9 °C 1018.8 hPa Calm   6.4 km/h 71 % 0.0 mm
18:22 5.6 °C 0.7 °C 1018.8 hPa Calm   6.4 km/h 71 % 0.0 mm
18:27 5.4 °C 0.6 °C 1018.8 hPa Calm   6.4 km/h 71 % 0.0 mm
18:32 5.2 °C 0.6 °C 1018.8 hPa Calm   5.5 km/h 72 % 0.0 mm
18:37 5.1 °C 0.4 °C 1018.8 hPa Calm   5.5 km/h 72 % 0.0 mm
18:42 4.9 °C 0.3 °C 1018.8 hPa Calm   5.5 km/h 72 % 0.0 mm
18:47 4.7 °C 0.3 °C 1018.8 hPa Calm   1.8 km/h 73 % 0.0 mm
18:52 4.4 °C 0.0 °C 1018.8 hPa Calm   1.8 km/h 73 % 0.0 mm
18:57 4.2 °C -0.2 °C 1018.8 hPa Calm     73 % 0.0 mm
19:02 4.0 °C -0.4 °C 1018.8 hPa Calm     73 % 0.0 mm
19:07 3.7 °C -0.5 °C 1018.8 hPa Calm     74 % 0.0 mm
19:12 3.6 °C -0.4 °C 1018.8 hPa Calm     75 % 0.0 mm
19:17 3.4 °C -0.4 °C 1018.8 hPa Calm     76 % 0.0 mm
19:22 3.2 °C -0.6 °C 1018.8 hPa Calm     76 % 0.0 mm
19:27 2.9 °C -0.9 °C 1018.8 hPa Calm     76 % 0.0 mm
19:32 2.7 °C -0.9 °C 1018.8 hPa Calm     77 % 0.0 mm
19:37 2.4 °C -1.0 °C 1018.8 hPa Calm     78 % 0.0 mm
19:42 2.3 °C -1.2 °C 1018.8 hPa Calm     78 % 0.0 mm
19:47 2.1 °C -1.4 °C 1018.8 hPa Calm     78 % 0.0 mm
19:52 1.9 °C -1.3 °C 1018.8 hPa Calm     79 % 0.0 mm
19:57 1.9 °C -1.2 °C 1018.8 hPa Calm     80 % 0.0 mm
20:02 1.8 °C -1.2 °C 1018.8 hPa Calm     81 % 0.0 mm
20:07 1.8 °C -1.0 °C 1019.9 hPa Calm     82 % 0.0 mm
20:12 1.6 °C -1.0 °C 1019.9 hPa Calm     83 % 0.0 mm
20:17 1.7 °C -0.9 °C 1019.9 hPa Calm     83 % 0.0 mm
20:22 1.7 °C -0.7 °C 1018.8 hPa Calm     84 % 0.0 mm
20:27 1.6 °C -0.7 °C 1018.8 hPa Calm   4.0 km/h 85 % 0.0 mm
20:32 1.4 °C -0.9 °C 1018.8 hPa Calm   4.0 km/h 85 % 0.0 mm
20:37 1.3 °C -0.9 °C 1019.9 hPa Calm     85 % 0.0 mm
20:42 1.2 °C -1.1 °C 1019.9 hPa Calm     85 % 0.0 mm
20:47 1.1 °C -1.2 °C 1019.9 hPa Calm     85 % 0.0 mm
20:52 1.0 °C -1.1 °C 1019.9 hPa Calm     86 % 0.0 mm
20:57 0.9 °C -1.2 °C 1019.9 hPa Calm     86 % 0.0 mm
21:02 0.9 °C -1.1 °C 1019.9 hPa Calm   1.8 km/h 87 % 0.0 mm
21:07 0.9 °C -0.9 °C 1019.9 hPa Calm   1.8 km/h 88 % 0.0 mm
21:12 0.9 °C -0.9 °C 1019.9 hPa Calm   1.8 km/h 88 % 0.0 mm
21:17 0.8 °C -1.0 °C 1019.9 hPa Calm     88 % 0.0 mm
21:22 0.7 °C -1.1 °C 1019.9 hPa Calm     88 % 0.0 mm
21:27 0.6 °C -1.2 °C 1019.9 hPa Calm     88 % 0.0 mm
21:32 0.6 °C -1.2 °C 1019.9 hPa Calm     88 % 0.0 mm
21:37 0.4 °C -1.4 °C 1020.9 hPa Calm     88 % 0.0 mm
21:42 0.4 °C -1.2 °C 1020.9 hPa Calm     89 % 0.0 mm
21:47 0.4 °C -1.2 °C 1020.9 hPa Calm     89 % 0.0 mm
21:52 0.3 °C -1.3 °C 1019.9 hPa Calm     89 % 0.0 mm
21:57 0.3 °C -1.3 °C 1019.9 hPa Calm     89 % 0.0 mm
22:02 0.4 °C -1.1 °C 1019.9 hPa Calm   3.2 km/h 90 % 0.0 mm
22:07 0.4 °C -1.1 °C 1019.9 hPa WSW 4.0 km/h 4.3 km/h 90 % 0.0 mm
22:12 0.4 °C -1.1 °C 1019.9 hPa West 4.7 km/h 6.4 km/h 90 % 0.0 mm
22:17 0.6 °C -0.7 °C 1019.9 hPa Calm   6.4 km/h 91 % 0.0 mm
22:22 0.7 °C -0.6 °C 1019.9 hPa Calm   5.5 km/h 91 % 0.0 mm
22:27 0.7 °C -0.4 °C 1019.9 hPa Calm   1.8 km/h 92 % 0.0 mm
22:32 0.6 °C -0.7 °C 1019.9 hPa Calm   1.8 km/h 91 % 0.0 mm
22:37 0.4 °C -0.9 °C 1020.9 hPa Calm     91 % 0.0 mm
22:42 0.3 °C -1.0 °C 1020.9 hPa Calm     91 % 0.0 mm
22:47 0.3 °C -1.0 °C 1020.9 hPa Calm     91 % 0.0 mm
22:52 0.3 °C -1.0 °C 1021.9 hPa Calm     91 % 0.0 mm
22:57 0.3 °C -0.8 °C 1021.9 hPa Calm   5.8 km/h 92 % 0.0 mm
23:02 0.3 °C -0.8 °C 1021.9 hPa Calm   5.8 km/h 92 % 0.0 mm
23:07 0.3 °C -0.8 °C 1020.9 hPa Calm   5.8 km/h 92 % 0.0 mm
23:12 0.3 °C -0.7 °C 1020.9 hPa Calm   1.8 km/h 93 % 0.0 mm
23:17 0.3 °C -0.7 °C 1020.9 hPa Calm     93 % 0.0 mm
23:22 0.2 °C -0.8 °C 1020.9 hPa Calm     93 % 0.0 mm
23:27 0.1 °C -0.9 °C 1020.9 hPa Calm     93 % 0.0 mm
23:32 0.1 °C -0.9 °C 1020.9 hPa Calm     93 % 0.0 mm
23:37 0.1 °C -0.9 °C 1020.9 hPa Calm     93 % 0.0 mm
23:42 0.1 °C -0.8 °C 1020.9 hPa Calm     94 % 0.0 mm
23:47 0.0 °C -0.8 °C 1020.9 hPa Calm     94 % 0.0 mm
23:52 -0.1 °C -0.9 °C 1020.9 hPa Calm   4.3 km/h 94 % 0.0 mm
23:57 0.1 °C -0.8 °C 1020.9 hPa SSW 5.5 km/h 5.5 km/h 94 % 0.0 mm
Le Gheer Warneton
Courtoisie de Weather Underground - 2.25 mb

Mise a jour : 17-12-17 03:18:12
Généré par Cumulus 1.9.4 (1099)